sensor_id;sensor_type;location;lat;lon;timestamp;pressure;altitude;pressure_sealevel;temperature;humidity
39301;BME280;25019;42.626;23.380;2023-02-11T00:01:34;96089.84;;;-6.31;82.87
39301;BME280;25019;42.626;23.380;2023-02-11T00:04:02;96087.19;;;-6.29;82.79
39301;BME280;25019;42.626;23.380;2023-02-11T00:06:29;96075.78;;;-6.40;83.23
39301;BME280;25019;42.626;23.380;2023-02-11T00:08:56;96088.31;;;-6.34;83.28
39301;BME280;25019;42.626;23.380;2023-02-11T00:11:23;96007.28;;;-6.86;84.18
39301;BME280;25019;42.626;23.380;2023-02-11T00:14:00;96081.69;;;-6.38;84.23
39301;BME280;25019;42.626;23.380;2023-02-11T00:16:27;96030.47;;;-6.71;83.93
39301;BME280;25019;42.626;23.380;2023-02-11T00:18:52;95998.53;;;-6.83;84.11
39301;BME280;25019;42.626;23.380;2023-02-11T00:21:23;96079.09;;;-6.38;84.60
39301;BME280;25019;42.626;23.380;2023-02-11T00:23:50;96081.38;;;-6.33;85.39
39301;BME280;25019;42.626;23.380;2023-02-11T00:26:20;96082.94;;;-6.30;85.23
39301;BME280;25019;42.626;23.380;2023-02-11T00:28:47;96079.63;;;-6.33;84.89
39301;BME280;25019;42.626;23.380;2023-02-11T00:31:15;96058.81;;;-6.44;84.63
39301;BME280;25019;42.626;23.380;2023-02-11T00:33:41;96086.25;;;-6.28;84.60
39301;BME280;25019;42.626;23.380;2023-02-11T00:36:09;96083.75;;;-6.30;84.86
39301;BME280;25019;42.626;23.380;2023-02-11T00:38:36;95926.44;;;-7.27;84.96
39301;BME280;25019;42.626;23.380;2023-02-11T00:41:02;96079.84;;;-6.36;85.07
39301;BME280;25019;42.626;23.380;2023-02-11T00:43:28;96077.00;;;-6.58;85.34
39301;BME280;25019;42.626;23.380;2023-02-11T00:45:53;96090.88;;;-6.47;85.50
39301;BME280;25019;42.626;23.380;2023-02-11T00:48:19;96070.06;;;-6.58;84.18
39301;BME280;25019;42.626;23.380;2023-02-11T00:50:44;96010.88;;;-7.01;84.49
39301;BME280;25019;42.626;23.380;2023-02-11T00:53:10;96082.38;;;-6.62;84.46
39301;BME280;25019;42.626;23.380;2023-02-11T00:55:37;95976.78;;;-7.34;84.66
39301;BME280;25019;42.626;23.380;2023-02-11T00:58:02;95988.09;;;-7.22;85.02
39301;BME280;25019;42.626;23.380;2023-02-11T01:00:28;96070.44;;;-6.77;85.42
39301;BME280;25019;42.626;23.380;2023-02-11T01:02:54;96077.38;;;-6.78;85.37
39301;BME280;25019;42.626;23.380;2023-02-11T01:05:21;96050.41;;;-6.86;85.49
39301;BME280;25019;42.626;23.380;2023-02-11T01:07:47;96011.63;;;-7.27;85.28
39301;BME280;25019;42.626;23.380;2023-02-11T01:10:14;96067.25;;;-6.81;85.45
39301;BME280;25019;42.626;23.380;2023-02-11T01:12:40;96070.63;;;-6.80;85.96
39301;BME280;25019;42.626;23.380;2023-02-11T01:15:07;96070.63;;;-6.80;86.16
39301;BME280;25019;42.626;23.380;2023-02-11T01:17:35;96022.22;;;-7.04;86.20
39301;BME280;25019;42.626;23.380;2023-02-11T01:20:06;96046.97;;;-6.87;85.94
39301;BME280;25019;42.626;23.380;2023-02-11T01:22:32;96069.22;;;-6.84;85.96
39301;BME280;25019;42.626;23.380;2023-02-11T01:24:59;96057.00;;;-6.82;85.61
39301;BME280;25019;42.626;23.380;2023-02-11T01:27:25;96055.25;;;-6.82;86.29
39301;BME280;25019;42.626;23.380;2023-02-11T01:29:51;96025.13;;;-7.09;86.28
39301;BME280;25019;42.626;23.380;2023-02-11T01:32:19;96055.56;;;-6.86;86.33
39301;BME280;25019;42.626;23.380;2023-02-11T01:34:45;96063.31;;;-6.86;86.14
39301;BME280;25019;42.626;23.380;2023-02-11T01:37:12;96058.41;;;-6.91;86.15
39301;BME280;25019;42.626;23.380;2023-02-11T01:39:38;96051.72;;;-6.94;85.77
39301;BME280;25019;42.626;23.380;2023-02-11T01:42:03;96066.38;;;-6.94;86.12
39301;BME280;25019;42.626;23.380;2023-02-11T01:44:38;96046.50;;;-7.07;85.98
39301;BME280;25019;42.626;23.380;2023-02-11T01:47:05;95899.53;;;-8.05;85.92
39301;BME280;25019;42.626;23.380;2023-02-11T01:49:38;96031.91;;;-7.20;86.39
39301;BME280;25019;42.626;23.380;2023-02-11T01:54:37;96055.38;;;-7.11;86.48
39301;BME280;25019;42.626;23.380;2023-02-11T01:57:25;96057.72;;;-7.20;86.15
39301;BME280;25019;42.626;23.380;2023-02-11T02:02:22;96055.53;;;-7.27;85.69
39301;BME280;25019;42.626;23.380;2023-02-11T02:08:08;96054.16;;;-7.32;86.38
39301;BME280;25019;42.626;23.380;2023-02-11T02:10:40;96033.09;;;-7.54;86.27
39301;BME280;25019;42.626;23.380;2023-02-11T02:13:06;96051.41;;;-7.44;85.68
39301;BME280;25019;42.626;23.380;2023-02-11T02:15:34;96044.91;;;-7.49;85.74
39301;BME280;25019;42.626;23.380;2023-02-11T02:24:43;96054.50;;;-7.52;86.11
39301;BME280;25019;42.626;23.380;2023-02-11T02:35:37;96050.53;;;-7.57;86.22
39301;BME280;25019;42.626;23.380;2023-02-11T02:38:30;96047.31;;;-7.61;85.92
39301;BME280;25019;42.626;23.380;2023-02-11T02:41:01;96038.19;;;-7.67;85.52
39301;BME280;25019;42.626;23.380;2023-02-11T02:43:28;96048.03;;;-7.59;85.06
39301;BME280;25019;42.626;23.380;2023-02-11T02:45:54;96052.38;;;-7.59;85.02
39301;BME280;25019;42.626;23.380;2023-02-11T02:48:31;96048.34;;;-7.63;84.95
39301;BME280;25019;42.626;23.380;2023-02-11T02:53:43;96047.91;;;-7.70;84.83
39301;BME280;25019;42.626;23.380;2023-02-11T02:56:44;96052.41;;;-7.74;85.09
39301;BME280;25019;42.626;23.380;2023-02-11T03:07:58;96061.34;;;-7.94;85.07
39301;BME280;25019;42.626;23.380;2023-02-11T03:10:32;96061.63;;;-7.99;85.19
39301;BME280;25019;42.626;23.380;2023-02-11T03:13:01;95949.94;;;-8.70;85.58
39301;BME280;25019;42.626;23.380;2023-02-11T03:15:30;96056.66;;;-8.02;85.76
39301;BME280;25019;42.626;23.380;2023-02-11T03:17:59;95985.81;;;-8.52;85.79
39301;BME280;25019;42.626;23.380;2023-02-11T03:20:26;96050.03;;;-8.06;85.88
39301;BME280;25019;42.626;23.380;2023-02-11T03:22:59;96059.59;;;-8.08;86.82
39301;BME280;25019;42.626;23.380;2023-02-11T03:25:34;96050.50;;;-7.99;86.76
39301;BME280;25019;42.626;23.380;2023-02-11T03:28:25;96040.38;;;-8.02;87.01
39301;BME280;25019;42.626;23.380;2023-02-11T03:34:10;96044.78;;;-7.90;87.00
39301;BME280;25019;42.626;23.380;2023-02-11T03:39:19;96040.09;;;-7.83;87.09
39301;BME280;25019;42.626;23.380;2023-02-11T03:41:48;96051.22;;;-7.83;86.99
39301;BME280;25019;42.626;23.380;2023-02-11T03:44:15;96032.78;;;-7.91;86.26
39301;BME280;25019;42.626;23.380;2023-02-11T03:46:47;95976.00;;;-8.33;86.23
39301;BME280;25019;42.626;23.380;2023-02-11T03:49:16;96055.66;;;-7.99;86.07
39301;BME280;25019;42.626;23.380;2023-02-11T03:51:45;96044.25;;;-8.09;85.41
39301;BME280;25019;42.626;23.380;2023-02-11T03:54:15;96051.22;;;-8.12;85.33
39301;BME280;25019;42.626;23.380;2023-02-11T03:56:55;96024.34;;;-8.36;85.97
39301;BME280;25019;42.626;23.380;2023-02-11T03:59:21;95994.56;;;-8.55;85.64
39301;BME280;25019;42.626;23.380;2023-02-11T04:01:47;96036.53;;;-8.24;85.58
39301;BME280;25019;42.626;23.380;2023-02-11T04:04:13;96043.50;;;-8.26;85.35
39301;BME280;25019;42.626;23.380;2023-02-11T04:06:39;96043.94;;;-8.34;85.83
39301;BME280;25019;42.626;23.380;2023-02-11T04:09:05;96043.66;;;-8.44;85.86
39301;BME280;25019;42.626;23.380;2023-02-11T04:11:31;96052.88;;;-8.39;85.68
39301;BME280;25019;42.626;23.380;2023-02-11T04:13:57;96041.00;;;-8.42;85.53
39301;BME280;25019;42.626;23.380;2023-02-11T04:16:22;96045.25;;;-8.41;85.83
39301;BME280;25019;42.626;23.380;2023-02-11T04:18:48;96046.97;;;-8.42;85.98
39301;BME280;25019;42.626;23.380;2023-02-11T04:21:13;96045.31;;;-8.43;85.78
39301;BME280;25019;42.626;23.380;2023-02-11T04:23:39;96044.69;;;-8.46;85.53
39301;BME280;25019;42.626;23.380;2023-02-11T04:26:05;96031.38;;;-8.53;85.86
39301;BME280;25019;42.626;23.380;2023-02-11T04:28:30;95936.63;;;-9.07;86.03
39301;BME280;25019;42.626;23.380;2023-02-11T04:30:56;96007.41;;;-8.69;86.95
39301;BME280;25019;42.626;23.380;2023-02-11T04:33:23;96021.03;;;-8.67;87.10
39301;BME280;25019;42.626;23.380;2023-02-11T04:35:49;96050.88;;;-8.49;86.89
39301;BME280;25019;42.626;23.380;2023-02-11T04:38:15;96041.69;;;-8.53;86.36
39301;BME280;25019;42.626;23.380;2023-02-11T04:40:41;96038.25;;;-8.53;86.61
39301;BME280;25019;42.626;23.380;2023-02-11T04:43:06;96033.84;;;-8.51;86.53
39301;BME280;25019;42.626;23.380;2023-02-11T04:45:32;95969.69;;;-9.15;87.30
39301;BME280;25019;42.626;23.380;2023-02-11T04:47:58;96030.03;;;-8.75;86.64
39301;BME280;25019;42.626;23.380;2023-02-11T04:50:24;96028.81;;;-8.83;86.96
39301;BME280;25019;42.626;23.380;2023-02-11T04:52:49;96015.31;;;-8.87;87.06
39301;BME280;25019;42.626;23.380;2023-02-11T04:55:15;96041.19;;;-8.74;86.95
39301;BME280;25019;42.626;23.380;2023-02-11T04:57:41;96010.59;;;-8.95;87.01
39301;BME280;25019;42.626;23.380;2023-02-11T05:00:07;96027.63;;;-8.78;87.12
39301;BME280;25019;42.626;23.380;2023-02-11T05:02:34;96022.56;;;-8.79;87.63
39301;BME280;25019;42.626;23.380;2023-02-11T05:05:00;96032.34;;;-8.70;87.38
39301;BME280;25019;42.626;23.380;2023-02-11T05:07:25;96022.13;;;-8.71;87.40
39301;BME280;25019;42.626;23.380;2023-02-11T05:09:51;96023.59;;;-8.67;87.45
39301;BME280;25019;42.626;23.380;2023-02-11T05:12:17;95954.00;;;-9.11;87.42
39301;BME280;25019;42.626;23.380;2023-02-11T05:14:43;96026.19;;;-8.67;87.10
39301;BME280;25019;42.626;23.380;2023-02-11T05:17:08;96023.31;;;-8.77;87.28
39301;BME280;25019;42.626;23.380;2023-02-11T05:19:34;96019.81;;;-8.76;86.68
39301;BME280;25019;42.626;23.380;2023-02-11T05:21:59;96018.69;;;-8.86;86.59
39301;BME280;25019;42.626;23.380;2023-02-11T05:24:25;95988.50;;;-8.99;86.54
39301;BME280;25019;42.626;23.380;2023-02-11T05:26:51;96020.84;;;-8.79;86.74
39301;BME280;25019;42.626;23.380;2023-02-11T05:29:16;96003.25;;;-8.86;86.67
39301;BME280;25019;42.626;23.380;2023-02-11T05:31:43;96017.25;;;-8.76;86.33
39301;BME280;25019;42.626;23.380;2023-02-11T05:34:08;96029.13;;;-8.74;86.14
39301;BME280;25019;42.626;23.380;2023-02-11T05:36:35;96030.69;;;-8.71;86.12
39301;BME280;25019;42.626;23.380;2023-02-11T05:39:00;96023.03;;;-8.73;86.19
39301;BME280;25019;42.626;23.380;2023-02-11T05:41:26;96021.94;;;-8.68;86.21
39301;BME280;25019;42.626;23.380;2023-02-11T05:43:51;96012.38;;;-8.66;86.07
39301;BME280;25019;42.626;23.380;2023-02-11T05:46:17;96024.44;;;-8.67;86.11
39301;BME280;25019;42.626;23.380;2023-02-11T05:48:42;96024.19;;;-8.62;85.57
39301;BME280;25019;42.626;23.380;2023-02-11T05:51:08;95872.28;;;-9.52;85.07
39301;BME280;25019;42.626;23.380;2023-02-11T05:53:34;96024.75;;;-8.57;85.20
39301;BME280;25019;42.626;23.380;2023-02-11T05:56:00;96026.13;;;-8.66;85.65
39301;BME280;25019;42.626;23.380;2023-02-11T05:58:26;95993.34;;;-8.78;85.31
39301;BME280;25019;42.626;23.380;2023-02-11T06:00:52;96022.00;;;-8.54;85.09
39301;BME280;25019;42.626;23.380;2023-02-11T06:03:17;96028.69;;;-8.51;84.94
39301;BME280;25019;42.626;23.380;2023-02-11T06:05:44;96028.31;;;-8.45;84.69
39301;BME280;25019;42.626;23.380;2023-02-11T06:08:10;95958.81;;;-8.90;84.31
39301;BME280;25019;42.626;23.380;2023-02-11T06:10:36;96042.09;;;-8.32;84.71
39301;BME280;25019;42.626;23.380;2023-02-11T06:13:03;96030.88;;;-8.31;84.83
39301;BME280;25019;42.626;23.380;2023-02-11T06:15:28;96039.81;;;-8.22;83.43
39301;BME280;25019;42.626;23.380;2023-02-11T06:17:54;96014.25;;;-8.25;83.40
39301;BME280;25019;42.626;23.380;2023-02-11T06:20:20;96046.19;;;-8.13;83.04
39301;BME280;25019;42.626;23.380;2023-02-11T06:22:46;96050.41;;;-8.12;82.44
39301;BME280;25019;42.626;23.380;2023-02-11T06:25:12;96037.63;;;-7.99;81.94
39301;BME280;25019;42.626;23.380;2023-02-11T06:27:38;96049.13;;;-7.90;81.62
39301;BME280;25019;42.626;23.380;2023-02-11T06:30:05;96046.06;;;-7.83;81.18
39301;BME280;25019;42.626;23.380;2023-02-11T06:32:31;95962.69;;;-8.25;80.91
39301;BME280;25019;42.626;23.380;2023-02-11T06:34:57;96050.91;;;-7.63;80.89
39301;BME280;25019;42.626;23.380;2023-02-11T06:37:23;96045.91;;;-7.52;81.05
39301;BME280;25019;42.626;23.380;2023-02-11T06:39:48;96039.25;;;-7.42;81.02
39301;BME280;25019;42.626;23.380;2023-02-11T06:42:14;96037.75;;;-7.31;80.79
39301;BME280;25019;42.626;23.380;2023-02-11T06:44:40;96034.47;;;-7.20;80.74
39301;BME280;25019;42.626;23.380;2023-02-11T06:47:06;96043.19;;;-7.09;80.56
39301;BME280;25019;42.626;23.380;2023-02-11T06:49:31;96039.91;;;-6.98;80.33
39301;BME280;25019;42.626;23.380;2023-02-11T06:51:57;96034.25;;;-6.90;79.69
39301;BME280;25019;42.626;23.380;2023-02-11T06:54:23;96048.66;;;-6.73;79.52
39301;BME280;25019;42.626;23.380;2023-02-11T06:56:48;96044.22;;;-6.58;79.31
39301;BME280;25019;42.626;23.380;2023-02-11T06:59:18;96041.78;;;-6.47;78.69
39301;BME280;25019;42.626;23.380;2023-02-11T07:01:47;96044.56;;;-6.37;78.77
39301;BME280;25019;42.626;23.380;2023-02-11T07:04:12;95934.94;;;-6.99;78.47
39301;BME280;25019;42.626;23.380;2023-02-11T07:06:39;96050.88;;;-6.15;78.31
39301;BME280;25019;42.626;23.380;2023-02-11T07:09:04;96044.22;;;-6.06;78.33
39301;BME280;25019;42.626;23.380;2023-02-11T07:11:30;96048.63;;;-5.95;78.38
39301;BME280;25019;42.626;23.380;2023-02-11T07:14:03;96042.72;;;-5.84;78.50
39301;BME280;25019;42.626;23.380;2023-02-11T07:16:30;96031.22;;;-5.80;77.92
39301;BME280;25019;42.626;23.380;2023-02-11T07:18:55;96041.56;;;-5.67;77.85
39301;BME280;25019;42.626;23.380;2023-02-11T07:21:22;96031.75;;;-5.75;78.26
39301;BME280;25019;42.626;23.380;2023-02-11T07:23:48;96030.38;;;-5.68;78.64
39301;BME280;25019;42.626;23.380;2023-02-11T07:26:17;96026.09;;;-5.56;78.38
39301;BME280;25019;42.626;23.380;2023-02-11T07:28:44;96031.56;;;-5.48;78.54
39301;BME280;25019;42.626;23.380;2023-02-11T07:31:14;96022.41;;;-5.41;78.68
39301;BME280;25019;42.626;23.380;2023-02-11T07:33:42;96021.56;;;-5.28;78.53
39301;BME280;25019;42.626;23.380;2023-02-11T07:36:10;96019.13;;;-5.18;77.80
39301;BME280;25019;42.626;23.380;2023-02-11T07:38:37;96014.09;;;-5.08;77.52
39301;BME280;25019;42.626;23.380;2023-02-11T07:41:06;96007.38;;;-5.11;76.78
39301;BME280;25019;42.626;23.380;2023-02-11T07:43:32;96009.78;;;-4.97;76.72
39301;BME280;25019;42.626;23.380;2023-02-11T07:45:58;96001.06;;;-4.96;75.80
39301;BME280;25019;42.626;23.380;2023-02-11T07:48:24;96005.47;;;-4.85;75.84
39301;BME280;25019;42.626;23.380;2023-02-11T07:50:50;96006.78;;;-4.79;75.34
39301;BME280;25019;42.626;23.380;2023-02-11T07:53:15;96006.31;;;-4.73;74.74
39301;BME280;25019;42.626;23.380;2023-02-11T07:55:43;96004.94;;;-4.66;74.90
39301;BME280;25019;42.626;23.380;2023-02-11T07:58:09;96009.78;;;-4.61;74.29
39301;BME280;25019;42.626;23.380;2023-02-11T08:00:34;95995.03;;;-4.60;74.44
39301;BME280;25019;42.626;23.380;2023-02-11T08:03:00;95990.94;;;-4.52;74.48
39301;BME280;25019;42.626;23.380;2023-02-11T08:05:26;96001.09;;;-4.26;75.78
39301;BME280;25019;42.626;23.380;2023-02-11T08:07:52;95993.81;;;-4.09;75.62
39301;BME280;25019;42.626;23.380;2023-02-11T08:10:18;96000.16;;;-3.91;73.33
39301;BME280;25019;42.626;23.380;2023-02-11T08:12:44;96002.28;;;-3.73;72.29
39301;BME280;25019;42.626;23.380;2023-02-11T08:15:10;95991.88;;;-3.73;69.15
39301;BME280;25019;42.626;23.380;2023-02-11T08:17:36;95994.84;;;-3.66;69.14
39301;BME280;25019;42.626;23.380;2023-02-11T08:20:03;95986.22;;;-3.67;69.21
39301;BME280;25019;42.626;23.380;2023-02-11T08:22:33;95973.00;;;-3.64;68.61
39301;BME280;25019;42.626;23.380;2023-02-11T08:24:59;95973.56;;;-3.49;68.15
39301;BME280;25019;42.626;23.380;2023-02-11T08:27:25;95993.63;;;-3.39;67.61
39301;BME280;25019;42.626;23.380;2023-02-11T08:29:54;95991.81;;;-3.39;66.94
39301;BME280;25019;42.626;23.380;2023-02-11T08:32:20;95989.13;;;-3.37;67.32
39301;BME280;25019;42.626;23.380;2023-02-11T08:34:50;95924.84;;;-3.68;66.82
39301;BME280;25019;42.626;23.380;2023-02-11T08:37:16;95920.31;;;-3.54;67.37
39301;BME280;25019;42.626;23.380;2023-02-11T08:39:42;95848.91;;;-3.93;68.13
39301;BME280;25019;42.626;23.380;2023-02-11T08:42:07;95981.47;;;-2.85;66.14
39301;BME280;25019;42.626;23.380;2023-02-11T08:44:33;95988.72;;;-2.67;66.30
39301;BME280;25019;42.626;23.380;2023-02-11T08:46:59;95981.63;;;-2.65;64.95
39301;BME280;25019;42.626;23.380;2023-02-11T08:49:24;95996.38;;;-2.45;65.29
39301;BME280;25019;42.626;23.380;2023-02-11T08:51:50;95987.63;;;-2.44;63.37
39301;BME280;25019;42.626;23.380;2023-02-11T08:54:16;95997.41;;;-2.36;62.02
39301;BME280;25019;42.626;23.380;2023-02-11T08:56:42;95971.19;;;-2.44;61.33
39301;BME280;25019;42.626;23.380;2023-02-11T08:59:12;95926.66;;;-2.72;61.76
39301;BME280;25019;42.626;23.380;2023-02-11T09:01:38;95973.13;;;-2.36;61.65
39301;BME280;25019;42.626;23.380;2023-02-11T09:04:04;95997.22;;;-2.13;61.78
39301;BME280;25019;42.626;23.380;2023-02-11T09:06:30;95988.75;;;-2.05;62.19
39301;BME280;25019;42.626;23.380;2023-02-11T09:08:56;95946.16;;;-2.35;61.94
39301;BME280;25019;42.626;23.380;2023-02-11T09:11:29;95986.41;;;-2.08;62.05
39301;BME280;25019;42.626;23.380;2023-02-11T09:13:55;95975.81;;;-2.27;62.45
39301;BME280;25019;42.626;23.380;2023-02-11T09:16:24;95985.59;;;-2.09;62.89
39301;BME280;25019;42.626;23.380;2023-02-11T09:18:51;95972.63;;;-1.99;63.28
39301;BME280;25019;42.626;23.380;2023-02-11T09:21:17;95974.03;;;-1.95;62.38
39301;BME280;25019;42.626;23.380;2023-02-11T09:23:44;95972.50;;;-1.98;63.03
39301;BME280;25019;42.626;23.380;2023-02-11T09:26:19;95975.41;;;-1.91;63.04
39301;BME280;25019;42.626;23.380;2023-02-11T09:28:46;95971.56;;;-1.97;62.23
39301;BME280;25019;42.626;23.380;2023-02-11T09:31:15;95974.81;;;-1.94;62.32
39301;BME280;25019;42.626;23.380;2023-02-11T09:33:43;95944.38;;;-2.04;62.49
39301;BME280;25019;42.626;23.380;2023-02-11T09:36:19;95912.06;;;-2.32;62.17
39301;BME280;25019;42.626;23.380;2023-02-11T09:38:47;95960.91;;;-1.84;62.33
39301;BME280;25019;42.626;23.380;2023-02-11T09:43:49;95955.47;;;-1.71;60.51
39301;BME280;25019;42.626;23.380;2023-02-11T09:46:16;95951.75;;;-1.68;61.26
39301;BME280;25019;42.626;23.380;2023-02-11T09:48:46;95938.19;;;-1.62;61.17
39301;BME280;25019;42.626;23.380;2023-02-11T09:51:28;95938.06;;;-1.51;60.11
39301;BME280;25019;42.626;23.380;2023-02-11T09:53:59;95941.78;;;-1.53;60.24
39301;BME280;25019;42.626;23.380;2023-02-11T09:56:28;95934.66;;;-1.41;60.59
39301;BME280;25019;42.626;23.380;2023-02-11T09:58:53;95926.84;;;-1.41;60.42
39301;BME280;25019;42.626;23.380;2023-02-11T10:01:39;95915.59;;;-1.42;59.42
39301;BME280;25019;42.626;23.380;2023-02-11T10:04:16;95918.06;;;-1.40;59.71
39301;BME280;25019;42.626;23.380;2023-02-11T10:09:40;95903.66;;;-1.15;58.71
39301;BME280;25019;42.626;23.380;2023-02-11T10:12:15;95902.41;;;-1.11;58.33
39301;BME280;25019;42.626;23.380;2023-02-11T10:15:03;95893.91;;;-1.13;59.00
39301;BME280;25019;42.626;23.380;2023-02-11T10:20:35;95885.22;;;-0.94;58.26
39301;BME280;25019;42.626;23.380;2023-02-11T10:23:16;95880.56;;;-0.80;58.85
39301;BME280;25019;42.626;23.380;2023-02-11T10:25:46;95873.81;;;-0.73;58.36
39301;BME280;25019;42.626;23.380;2023-02-11T10:28:19;95869.25;;;-0.61;57.58
39301;BME280;25019;42.626;23.380;2023-02-11T10:35:48;95732.38;;;-1.14;57.37
39301;BME280;25019;42.626;23.380;2023-02-11T10:38:14;95830.75;;;-0.49;56.99
39301;BME280;25019;42.626;23.380;2023-02-11T10:40:40;95822.13;;;-0.32;57.38
39301;BME280;25019;42.626;23.380;2023-02-11T10:43:10;95801.25;;;-0.32;56.45
39301;BME280;25019;42.626;23.380;2023-02-11T10:45:47;95802.44;;;-0.26;55.29
39301;BME280;25019;42.626;23.380;2023-02-11T10:48:40;95807.84;;;-0.09;54.57
39301;BME280;25019;42.626;23.380;2023-02-11T10:53:38;95802.31;;;-0.24;54.29
39301;BME280;25019;42.626;23.380;2023-02-11T10:56:05;95794.56;;;-0.16;54.49
39301;BME280;25019;42.626;23.380;2023-02-11T11:01:57;95788.44;;;-0.07;53.47
39301;BME280;25019;42.626;23.380;2023-02-11T11:04:43;95782.81;;;-0.02;51.12
39301;BME280;25019;42.626;23.380;2023-02-11T11:09:47;95774.28;;;0.14;51.19
39301;BME280;25019;42.626;23.380;2023-02-11T11:12:46;95775.31;;;0.21;51.61
39301;BME280;25019;42.626;23.380;2023-02-11T11:15:16;95767.50;;;0.21;51.90
39301;BME280;25019;42.626;23.380;2023-02-11T11:17:44;95781.00;;;0.35;50.77
39301;BME280;25019;42.626;23.380;2023-02-11T11:20:25;95768.00;;;0.43;51.04
39301;BME280;25019;42.626;23.380;2023-02-11T11:23:16;95760.69;;;0.47;50.49
39301;BME280;25019;42.626;23.380;2023-02-11T11:25:45;95700.38;;;0.22;50.81
39301;BME280;25019;42.626;23.380;2023-02-11T11:28:24;95764.38;;;0.62;48.91
39301;BME280;25019;42.626;23.380;2023-02-11T11:30:52;95679.50;;;0.04;49.64
39301;BME280;25019;42.626;23.380;2023-02-11T11:33:22;95764.53;;;0.61;49.76
39301;BME280;25019;42.626;23.380;2023-02-11T11:38:28;95612.88;;;-0.19;48.54
39301;BME280;25019;42.626;23.380;2023-02-11T11:44:00;95751.28;;;0.80;49.84
39301;BME280;25019;42.626;23.380;2023-02-11T11:46:38;95738.09;;;0.90;49.78
39301;BME280;25019;42.626;23.380;2023-02-11T11:49:11;95745.25;;;0.88;49.51
39301;BME280;25019;42.626;23.380;2023-02-11T11:51:40;95678.31;;;0.42;49.26
39301;BME280;25019;42.626;23.380;2023-02-11T11:54:11;95744.16;;;0.91;49.34
39301;BME280;25019;42.626;23.380;2023-02-11T11:57:05;95735.34;;;0.92;48.77
39301;BME280;25019;42.626;23.380;2023-02-11T11:59:34;95735.16;;;0.93;48.90
39301;BME280;25019;42.626;23.380;2023-02-11T12:04:59;95712.16;;;1.05;50.00
39301;BME280;25019;42.626;23.380;2023-02-11T12:10:42;95706.66;;;1.16;49.68
39301;BME280;25019;42.626;23.380;2023-02-11T12:35:34;95672.28;;;1.71;48.09
39301;BME280;25019;42.626;23.380;2023-02-11T12:41:13;95659.03;;;1.72;48.40
39301;BME280;25019;42.626;23.380;2023-02-11T12:43:41;95660.03;;;1.88;47.63
39301;BME280;25019;42.626;23.380;2023-02-11T12:49:09;95654.97;;;1.86;47.49
39301;BME280;25019;42.626;23.380;2023-02-11T12:54:23;95589.16;;;1.64;47.31
39301;BME280;25019;42.626;23.380;2023-02-11T12:57:53;95649.56;;;2.21;46.84
39301;BME280;25019;42.626;23.380;2023-02-11T13:00:28;95639.72;;;2.31;45.83
39301;BME280;25019;42.626;23.380;2023-02-11T13:03:06;95641.19;;;2.34;45.03
39301;BME280;25019;42.626;23.380;2023-02-11T13:05:54;95639.03;;;2.46;44.20
39301;BME280;25019;42.626;23.380;2023-02-11T13:11:19;95620.88;;;2.36;43.90
39301;BME280;25019;42.626;23.380;2023-02-11T13:18:55;95631.16;;;2.54;43.52
39301;BME280;25019;42.626;23.380;2023-02-11T13:21:35;95634.25;;;2.58;43.28
39301;BME280;25019;42.626;23.380;2023-02-11T13:32:09;95628.47;;;2.70;42.84
39301;BME280;25019;42.626;23.380;2023-02-11T13:37:31;95605.81;;;2.86;42.77
39301;BME280;25019;42.626;23.380;2023-02-11T13:40:20;95616.72;;;3.06;43.28
39301;BME280;25019;42.626;23.380;2023-02-11T13:42:52;95613.59;;;3.11;42.54
39301;BME280;25019;42.626;23.380;2023-02-11T13:45:29;95614.25;;;3.05;41.67
39301;BME280;25019;42.626;23.380;2023-02-11T13:48:27;95532.47;;;2.53;42.45
39301;BME280;25019;42.626;23.380;2023-02-11T13:50:59;95591.31;;;2.98;41.86
39301;BME280;25019;42.626;23.380;2023-02-11T13:53:26;95607.38;;;3.04;41.15
39301;BME280;25019;42.626;23.380;2023-02-11T13:56:11;95592.94;;;2.99;41.33
39301;BME280;25019;42.626;23.380;2023-02-11T13:58:49;95594.25;;;3.04;41.13
39301;BME280;25019;42.626;23.380;2023-02-11T14:04:24;95587.34;;;3.03;41.13
39301;BME280;25019;42.626;23.380;2023-02-11T14:07:31;95580.47;;;3.02;40.78
39301;BME280;25019;42.626;23.380;2023-02-11T14:10:58;95575.00;;;3.11;41.91
39301;BME280;25019;42.626;23.380;2023-02-11T14:18:35;95574.50;;;3.39;41.27
39301;BME280;25019;42.626;23.380;2023-02-11T14:23:39;95573.53;;;3.40;39.73
39301;BME280;25019;42.626;23.380;2023-02-11T14:34:18;95562.91;;;3.34;39.46
39301;BME280;25019;42.626;23.380;2023-02-11T14:41:48;95560.97;;;3.04;39.43
39301;BME280;25019;42.626;23.380;2023-02-11T14:44:26;95554.44;;;2.92;39.26
39301;BME280;25019;42.626;23.380;2023-02-11T14:46:53;95561.78;;;2.96;39.84
39301;BME280;25019;42.626;23.380;2023-02-11T14:49:34;95574.56;;;2.99;40.44
39301;BME280;25019;42.626;23.380;2023-02-11T14:52:33;95568.34;;;3.00;40.26
39301;BME280;25019;42.626;23.380;2023-02-11T14:57:30;95580.03;;;2.90;41.46
39301;BME280;25019;42.626;23.380;2023-02-11T15:00:00;95571.06;;;2.84;41.46
39301;BME280;25019;42.626;23.380;2023-02-11T15:02:36;95576.88;;;2.63;42.21
39301;BME280;25019;42.626;23.380;2023-02-11T15:05:16;95573.00;;;2.42;42.66
39301;BME280;25019;42.626;23.380;2023-02-11T15:07:49;95564.81;;;2.37;43.60
39301;BME280;25019;42.626;23.380;2023-02-11T15:12:49;95566.31;;;2.31;43.93
39301;BME280;25019;42.626;23.380;2023-02-11T15:15:15;95561.56;;;2.27;44.17
39301;BME280;25019;42.626;23.380;2023-02-11T15:17:42;95565.34;;;2.16;44.42
39301;BME280;25019;42.626;23.380;2023-02-11T15:20:17;95555.22;;;2.04;45.02
39301;BME280;25019;42.626;23.380;2023-02-11T15:22:45;95558.19;;;2.01;44.62
39301;BME280;25019;42.626;23.380;2023-02-11T15:25:16;95558.19;;;1.93;45.02
39301;BME280;25019;42.626;23.380;2023-02-11T15:27:51;95546.06;;;1.84;46.08
39301;BME280;25019;42.626;23.380;2023-02-11T15:32:46;95537.75;;;1.63;46.29
39301;BME280;25019;42.626;23.380;2023-02-11T15:35:13;95540.03;;;1.58;47.05
39301;BME280;25019;42.626;23.380;2023-02-11T15:37:39;95508.78;;;1.24;47.27
39301;BME280;25019;42.626;23.380;2023-02-11T15:40:17;95536.44;;;1.34;48.65
39301;BME280;25019;42.626;23.380;2023-02-11T15:42:57;95541.16;;;1.23;49.51